AirNav   Air Wisconsin Up To $57,000 Bonus
 
 1302 users online  

10OK Hickory Hills Airport
Norman, Oklahoma, USA

GOING TO NORMAN?


FAA INFORMATION EFFECTIVE 05 DECEMBER 2019

Location

FAA Identifier: 10OK
Lat/Long: 35-10-00.2550N 097-13-01.0970W
35-10.004250N 097-13.018283W
35.1667375,-97.2169714
(estimated)
Elevation: 1175 ft. / 358 m (estimated)
Variation: 07E (1985)
From city: 12 miles SE of NORMAN, OK
Time zone: UTC -6 (UTC -5 during Daylight Saving Time)
Zip code: 73068

Airport Operations

Airport use: Private use. Permission required prior to landing
Activation date: 11/1982
Control tower: no
ARTCC: FORT WORTH CENTER
FSS: MC ALESTER FLIGHT SERVICE STATION
Attendance: 1600-2200
Wind indicator: yes
Segmented circle: no

Airport Communications

UNICOM: 123.0
WX AWOS-3 at OUN (13 nm W): 119.55 (405-325-7302)
WX AWOS-3 at SNL (18 nm NE): 118.275 (405-878-1745)

Nearby radio navigation aids

VOR radial/distance  VOR name  Freq  Var
IRWr114/22.4WILL ROGERS VORTAC114.1007E
PWAr128/30.4WILEY POST VOR/DME113.4008E
ADHr303/34.6ADA VOR/DME117.8006E

 
NDB name  Hdg/Dist  Freq  Var  ID
MULDROW359/8.351206EHMY .... -- -.--
SEMINOLE251/27.327806ESRE ... .-. .

Airport Services

Runway Information

Runway 17/35

Dimensions: 2600 x 150 ft. / 792 x 46 m
Surface: turf
RUNWAY 17  RUNWAY 35
Traffic pattern: leftleft
Obstructions: trees, 200 ft. from runwaytrees, 200 ft. from runway

Airport Ownership and Management from official FAA records

Ownership: Privately-owned
Owner: EUGENE L. COLLETT
170 HICKORY HILLS CIRCLE
NOBLE, OK 73068
Phone 405-872-5077
Manager: EUGENE L. COLLETT
170 HICKORY HILLS CIRCLE
NOBLE, OK 73068
Phone 405-872-5077

Airport Operational Statistics

Aircraft based on the field: 1
Single engine airplanes: 1
    

Additional Remarks

FOR CD CTC OKE CITY APCH AT 405-681-5683.

Instrument Procedures

There are no published instrument procedures at 10OK.

Some nearby airports with instrument procedures:

KHMY - Muldrow Army Heliport (8 nm S)
1K4 - David Jay Perry Airport (12 nm W)
KOUN - University of Oklahoma Westheimer Airport (13 nm W)
KTIK - Tinker Air Force Base (17 nm NW)
KSNL - Shawnee Regional Airport (18 nm NE)
 
Loc | Ops | Rwys | IFR | FBO | Links
Com | Nav | Svcs | Stats | Notes
Area around 10OK (Hickory Hills Airport)
 
Road maps at: MapQuest Bing Google
 
Aerial photo
No photo
 
Sectional chart

 
Airport distance calculator
Flying to Hickory Hills Airport? Find the distance to fly.

From to 10OK

Sunrise and sunset
Times for 06-Dec-2019
 Local
(UTC-6)
 Zulu
(UTC)
Morning civil twilight06:5612:56
Sunrise07:2413:24
Sunset17:1623:16
Evening civil twilight17:4423:44

Current date and time
Zulu (UTC)  06-Dec-2019 21:44:23
Local (UTC-6)  06-Dec-2019 15:44:23
 
METAR
KOUN 
12nm W 
062045Z 33011KT 10SM CLR 09/01 A3029
KTIK 
17nm NW 
062056Z AUTO 36013KT 10SM CLR 10/01 A3030 RMK AO2 SLP269 T00970006
KSNL 
17nm NE 
062135Z AUTO 36011KT 10SM CLR 09/01 A3031 RMK AO2 T00900010
TAF
KOUN 
12nm W 
061741Z 0618/0718 35014G20KT P6SM SCT020 FM061900 36011KT P6SM SCT250 FM070600 VRB03KT P6SM BKN250
KTIK 
17nm NW 
061800Z 0618/0724 36015G20KT 9999 SKC QNH3027INS BECMG 0623/0624 03006KT 9999 FEW200 QNH3031INS BECMG 0714/0715 18009KT 9999 FEW150 QNH3013INS TX10/0621Z TN01/0710Z
NOTAMs
Click for the latest NOTAMs
NOTAMs are issued by the DoD/FAA and will open in a separate window not controlled by AirNav.

 

 
 

Would you like to see your business listed on this page?

 If your business provides an interesting product or service to pilots, flight crews, aircraft, or users of the Hickory Hills Airport, you should consider listing it here.  To start the listing process, click on the button below
 
Add a business
 

Other Pages about Hickory Hills Airport

Update a link
 
Copyright © AirNav, LLC. All rights reserved. Privacy Policy  Contact